createdAt,value
2019-01-25T00:02:13.964Z,117.72
2019-01-25T00:04:42.240Z,118.33
2019-01-25T00:07:10.492Z,117.03
2019-01-25T00:09:38.737Z,115.75
2019-01-25T00:12:07.013Z,114.85
2019-01-25T00:14:35.228Z,115.70
2019-01-25T00:17:03.529Z,121.70
2019-01-25T00:19:31.789Z,122.73
2019-01-25T00:22:00.028Z,124.75
2019-01-25T00:24:28.263Z,121.20
2019-01-25T00:26:56.549Z,120.97
2019-01-25T00:29:24.785Z,124.95
2019-01-25T00:31:53.013Z,120.13
2019-01-25T00:34:21.281Z,123.60
2019-01-25T00:36:49.524Z,122.58
2019-01-25T00:39:17.756Z,123.47
2019-01-25T00:41:46.024Z,125.45
2019-01-25T00:44:14.270Z,120.45
2019-01-25T00:46:42.527Z,128.27
2019-01-25T00:49:10.800Z,126.38
2019-01-25T00:51:39.023Z,129.15
2019-01-25T00:54:07.276Z,128.53
2019-01-25T00:56:35.539Z,127.70
2019-01-25T00:59:03.826Z,125.78
2019-01-25T01:01:32.046Z,123.70
2019-01-25T01:04:00.317Z,130.75
2019-01-25T01:06:28.545Z,131.80
2019-01-25T01:08:56.844Z,128.35
2019-01-25T01:11:25.106Z,128.10
2019-01-25T01:13:53.344Z,132.32
2019-01-25T01:16:21.620Z,132.70
2019-01-25T01:18:49.877Z,128.45
2019-01-25T01:21:18.124Z,121.85
2019-01-25T01:23:46.355Z,126.85
2019-01-25T01:26:14.624Z,122.77
2019-01-25T01:28:42.852Z,121.13
2019-01-25T01:31:11.098Z,121.75
2019-01-25T01:33:39.373Z,117.50
2019-01-25T01:36:07.608Z,114.62
2019-01-25T01:38:35.846Z,115.52
2019-01-25T01:41:04.119Z,113.97
2019-01-25T01:43:32.359Z,112.35
2019-01-25T01:46:00.596Z,109.22
2019-01-25T01:48:28.849Z,108.95
2019-01-25T01:50:57.093Z,107.55
2019-01-25T01:53:25.332Z,111.37
2019-01-25T01:55:53.594Z,109.45
2019-01-25T01:58:21.830Z,110.95
2019-01-25T02:00:50.089Z,108.00
2019-01-25T02:03:18.350Z,108.12
2019-01-25T02:05:47.555Z,108.15
2019-01-25T02:08:15.780Z,111.20
2019-01-25T02:10:44.048Z,108.50
2019-01-25T02:13:13.117Z,112.17
2019-01-25T02:15:41.345Z,109.05
2019-01-25T02:18:09.594Z,115.92
2019-01-25T02:20:37.823Z,117.87
2019-01-25T02:23:06.034Z,116.30
2019-01-25T02:25:34.942Z,114.70
2019-01-25T02:28:03.143Z,117.90
2019-01-25T02:30:31.362Z,120.00
2019-01-25T02:32:59.591Z,112.47
2019-01-25T02:35:27.790Z,112.55
2019-01-25T02:37:56.042Z,110.57
2019-01-25T02:40:24.454Z,112.42
2019-01-25T02:42:52.677Z,110.10
2019-01-25T02:45:20.900Z,114.62
2019-01-25T02:47:49.127Z,111.20
2019-01-25T02:50:18.684Z,110.05
2019-01-25T02:52:46.911Z,113.60
2019-01-25T02:55:15.890Z,116.65
2019-01-25T02:57:44.171Z,114.62
2019-01-25T03:00:15.530Z,110.45
2019-01-25T03:02:43.771Z,111.62
2019-01-25T03:05:12.056Z,116.77
2019-01-25T03:07:40.265Z,118.53
2019-01-25T03:10:14.206Z,113.55
2019-01-25T03:12:42.425Z,120.53
2019-01-25T03:15:16.611Z,113.08
2019-01-25T03:17:44.880Z,113.28
2019-01-25T03:20:14.627Z,114.92
2019-01-25T03:22:42.830Z,115.17
2019-01-25T03:25:14.075Z,117.15
2019-01-25T03:27:42.296Z,117.47
2019-01-25T03:30:13.779Z,114.75
2019-01-25T03:32:42.044Z,117.05
2019-01-25T03:35:11.995Z,113.88
2019-01-25T03:37:40.566Z,116.47
2019-01-25T03:40:14.719Z,114.57
2019-01-25T03:42:42.930Z,112.12
2019-01-25T03:45:13.096Z,117.57
2019-01-25T03:47:41.338Z,118.87
2019-01-25T03:50:13.132Z,114.90
2019-01-25T03:52:41.354Z,118.70
2019-01-25T03:55:11.710Z,119.83
2019-01-25T03:57:39.934Z,114.35
2019-01-25T04:00:28.525Z,117.25
2019-01-25T04:02:56.746Z,113.50
2019-01-25T04:05:24.971Z,116.30
2019-01-25T04:07:53.191Z,116.95
2019-01-25T04:10:26.151Z,109.25
2019-01-25T04:12:54.356Z,120.33
2019-01-25T04:15:28.067Z,121.62
2019-01-25T04:17:56.291Z,122.35
2019-01-25T04:20:24.496Z,118.20
2019-01-25T04:22:52.757Z,119.05
2019-01-25T04:25:22.261Z,115.30
2019-01-25T04:27:50.654Z,116.57
2019-01-25T04:30:23.941Z,117.80
2019-01-25T04:32:52.159Z,121.00
2019-01-25T04:35:20.366Z,116.22
2019-01-25T04:37:48.613Z,119.20
2019-01-25T04:40:18.055Z,114.65
2019-01-25T04:42:46.333Z,121.00
2019-01-25T04:45:16.932Z,121.22
2019-01-25T04:47:45.140Z,120.95
2019-01-25T04:50:15.597Z,120.57
2019-01-25T04:52:43.843Z,120.85
2019-01-25T04:55:22.648Z,116.57
2019-01-25T04:57:50.887Z,116.73
2019-01-25T05:00:23.537Z,117.57
2019-01-25T05:02:59.451Z,123.33
2019-01-25T05:05:28.219Z,116.37
2019-01-25T05:08:01.618Z,114.28
2019-01-25T05:10:29.865Z,112.08
2019-01-25T05:12:58.082Z,113.00
2019-01-25T05:15:26.309Z,109.40
2019-01-25T05:17:55.197Z,114.08
2019-01-25T05:20:23.426Z,111.68
2019-01-25T05:22:56.048Z,112.92
2019-01-25T05:25:25.583Z,115.12
2019-01-25T05:27:53.816Z,111.35
2019-01-25T05:30:22.026Z,108.65
2019-01-25T05:32:50.524Z,106.80
2019-01-25T05:35:18.792Z,115.92
2019-01-25T05:37:47.025Z,106.47
2019-01-25T05:40:23.879Z,108.27
2019-01-25T05:42:52.160Z,112.35
2019-01-25T05:45:20.365Z,108.25
2019-01-25T05:47:48.589Z,106.03
2019-01-25T05:50:17.574Z,105.37
2019-01-25T05:52:45.806Z,108.32
2019-01-25T05:55:18.895Z,103.97
2019-01-25T05:57:47.199Z,106.92
2019-01-25T06:00:17.237Z,112.75
2019-01-25T06:02:46.120Z,113.27
2019-01-25T06:05:14.374Z,113.75
2019-01-25T06:07:44.055Z,111.28
2019-01-25T06:10:12.839Z,107.03
2019-01-25T06:12:41.091Z,109.55
2019-01-25T06:15:11.126Z,111.50
2019-01-25T06:18:00.403Z,105.30
2019-01-25T06:20:28.635Z,110.57
2019-01-25T06:22:56.859Z,99.72
2019-01-25T06:25:25.046Z,110.17
2019-01-25T06:27:53.267Z,111.30
2019-01-25T06:30:21.466Z,107.37
2019-01-25T06:32:49.673Z,108.92
2019-01-25T06:35:17.886Z,100.00
2019-01-25T06:37:46.094Z,106.45
2019-01-25T06:40:15.055Z,106.83
2019-01-25T06:42:43.254Z,103.65
2019-01-25T06:45:11.914Z,97.70
2019-01-25T06:47:59.551Z,98.27
2019-01-25T06:50:39.769Z,101.82
2019-01-25T06:53:07.967Z,103.78
2019-01-25T06:55:36.176Z,99.25
2019-01-25T06:58:08.672Z,96.60
2019-01-25T07:00:44.719Z,97.00
2019-01-25T07:03:12.930Z,95.32
2019-01-25T07:05:41.134Z,91.95
2019-01-25T07:08:11.003Z,88.50
2019-01-25T07:10:39.198Z,94.45
2019-01-25T07:13:07.410Z,96.22
2019-01-25T07:15:35.625Z,97.22
2019-01-25T07:18:03.822Z,89.10
2019-01-25T07:20:32.041Z,90.60
2019-01-25T07:23:00.238Z,93.37
2019-01-25T07:25:28.465Z,87.17
2019-01-25T07:27:56.668Z,84.55
2019-01-25T07:30:24.976Z,85.03
2019-01-25T07:32:53.373Z,86.97
2019-01-25T07:35:21.939Z,85.35
2019-01-25T07:37:50.441Z,90.35
2019-01-25T07:40:18.699Z,86.72
2019-01-25T07:42:47.012Z,81.80
2019-01-25T07:45:15.244Z,79.92
2019-01-25T07:47:43.751Z,85.00
2019-01-25T07:50:12.483Z,85.70
2019-01-25T07:52:40.687Z,83.75
2019-01-25T07:55:10.891Z,85.43
2019-01-25T07:57:39.212Z,81.57
2019-01-25T08:00:12.343Z,84.00
2019-01-25T08:02:40.563Z,78.12
2019-01-25T08:05:10.664Z,83.52
2019-01-25T08:07:39.141Z,79.97
2019-01-25T08:10:10.672Z,78.87
2019-01-25T08:12:38.874Z,78.87
2019-01-25T08:15:10.585Z,80.53
2019-01-25T08:17:38.795Z,75.60
2019-01-25T08:20:09.986Z,79.30
2019-01-25T08:22:38.270Z,78.87
2019-01-25T08:25:07.954Z,73.25
2019-01-25T08:27:36.246Z,75.62
2019-01-25T08:30:13.274Z,77.45
2019-01-25T08:32:41.534Z,80.30
2019-01-25T08:35:11.139Z,80.57
2019-01-25T08:37:39.356Z,79.05
2019-01-25T08:40:10.801Z,80.97
2019-01-25T08:42:39.001Z,80.03
2019-01-25T08:45:10.238Z,81.63
2019-01-25T08:47:38.435Z,74.77
2019-01-25T08:50:09.981Z,77.53
2019-01-25T08:52:38.311Z,80.73
2019-01-25T08:55:06.843Z,80.20
2019-01-25T08:57:35.050Z,78.92
2019-01-25T09:00:05.433Z,79.12
2019-01-25T09:02:33.654Z,73.28
2019-01-25T09:05:01.887Z,74.25
2019-01-25T09:07:30.162Z,71.82
2019-01-25T09:09:58.371Z,72.50
2019-01-25T09:12:26.604Z,69.33
2019-01-25T09:14:54.798Z,72.75
2019-01-25T09:17:22.999Z,69.72
2019-01-25T09:19:51.215Z,68.57
2019-01-25T09:22:19.436Z,73.20
2019-01-25T09:24:47.655Z,74.53
2019-01-25T09:27:15.859Z,68.30
2019-01-25T09:29:44.070Z,72.42
2019-01-25T09:32:12.270Z,68.02
2019-01-25T09:34:40.502Z,71.95
2019-01-25T09:37:08.697Z,65.50
2019-01-25T09:39:36.898Z,67.62
2019-01-25T09:42:05.132Z,67.03
2019-01-25T09:44:33.322Z,67.78
2019-01-25T09:47:01.532Z,71.77
2019-01-25T09:49:29.750Z,65.70
2019-01-25T09:51:57.942Z,67.60
2019-01-25T09:54:26.169Z,64.72
2019-01-25T09:56:54.370Z,66.10
2019-01-25T09:59:22.566Z,68.05
2019-01-25T10:01:50.815Z,68.03
2019-01-25T10:04:19.005Z,74.50
2019-01-25T10:06:47.202Z,69.50
2019-01-25T10:09:15.418Z,67.42
2019-01-25T10:11:43.625Z,65.97
2019-01-25T10:14:11.818Z,64.55
2019-01-25T10:16:40.070Z,65.15
2019-01-25T10:19:08.273Z,64.25
2019-01-25T10:21:36.466Z,63.13
2019-01-25T10:24:04.698Z,64.95
2019-01-25T10:26:32.898Z,66.42
2019-01-25T10:29:01.110Z,64.42
2019-01-25T10:31:48.755Z,67.50
2019-01-25T10:34:16.950Z,65.22
2019-01-25T10:36:45.235Z,65.62
2019-01-25T10:39:13.466Z,63.52
2019-01-25T10:41:41.663Z,62.97
2019-01-25T10:44:09.884Z,60.33
2019-01-25T10:46:38.090Z,62.03
2019-01-25T10:49:06.285Z,63.10
2019-01-25T10:51:34.494Z,62.75
2019-01-25T10:54:02.706Z,65.65
2019-01-25T10:56:30.893Z,64.27
2019-01-25T10:58:59.086Z,60.40
2019-01-25T11:01:27.317Z,64.50
2019-01-25T11:03:55.561Z,64.77
2019-01-25T11:06:23.734Z,67.45
2019-01-25T11:08:52.954Z,67.53
2019-01-25T11:11:21.338Z,63.80
2019-01-25T11:13:49.534Z,66.67
2019-01-25T11:16:17.750Z,65.22
2019-01-25T11:18:45.957Z,64.25
2019-01-25T11:21:14.162Z,64.67
2019-01-25T11:23:42.390Z,63.65
2019-01-25T11:26:10.586Z,63.40
2019-01-25T11:28:38.787Z,59.10
2019-01-25T11:31:07.026Z,63.80
2019-01-25T11:33:35.213Z,61.48
2019-01-25T11:36:03.410Z,62.08
2019-01-25T11:38:31.630Z,60.92
2019-01-25T11:40:59.838Z,61.15
2019-01-25T11:43:28.039Z,66.10
2019-01-25T11:45:56.263Z,65.95
2019-01-25T11:48:24.458Z,69.53
2019-01-25T11:50:52.670Z,69.17
2019-01-25T11:53:20.887Z,69.80
2019-01-25T11:55:49.096Z,70.78
2019-01-25T11:58:17.297Z,68.90
2019-01-25T12:00:45.881Z,69.15
2019-01-25T12:03:14.083Z,68.33
2019-01-25T12:05:42.278Z,66.15
2019-01-25T12:08:10.553Z,65.45
2019-01-25T12:10:38.747Z,66.05
2019-01-25T12:13:06.946Z,63.73
2019-01-25T12:15:35.174Z,67.72
2019-01-25T12:18:03.373Z,64.87
2019-01-25T12:20:32.614Z,65.05
2019-01-25T12:23:00.850Z,63.60
2019-01-25T12:25:29.067Z,60.12
2019-01-25T12:27:57.526Z,63.45
2019-01-25T12:30:38.168Z,63.02
2019-01-25T12:33:07.443Z,62.83
2019-01-25T12:35:37.784Z,60.92
2019-01-25T12:38:06.074Z,59.48
2019-01-25T12:40:34.527Z,60.63
2019-01-25T12:43:02.744Z,62.70
2019-01-25T12:45:31.610Z,63.87
2019-01-25T12:47:59.805Z,62.73
2019-01-25T12:50:34.054Z,66.30
2019-01-25T12:53:03.856Z,62.63
2019-01-25T12:55:32.881Z,60.40
2019-01-25T12:58:01.623Z,60.63
2019-01-25T13:00:30.443Z,60.80
2019-01-25T13:02:58.767Z,62.65
2019-01-25T13:05:27.011Z,64.32
2019-01-25T13:07:55.251Z,67.58
2019-01-25T13:10:25.594Z,64.70
2019-01-25T13:12:53.810Z,63.63
2019-01-25T13:15:22.123Z,61.40
2019-01-25T13:17:50.342Z,56.73
2019-01-25T13:20:29.100Z,57.17
2019-01-25T13:22:57.352Z,54.33
2019-01-25T13:25:25.555Z,50.10
2019-01-25T13:27:53.876Z,49.40
2019-01-25T13:30:29.688Z,49.42
2019-01-25T13:32:58.005Z,50.05
2019-01-25T13:35:26.385Z,50.30
2019-01-25T13:37:54.642Z,51.58
2019-01-25T13:40:24.847Z,52.13
2019-01-25T13:42:53.169Z,53.15
2019-01-25T13:45:22.711Z,55.88
2019-01-25T13:47:51.172Z,54.18
2019-01-25T13:50:27.309Z,55.35
2019-01-25T13:52:55.593Z,53.13
2019-01-25T13:55:23.828Z,55.23
2019-01-25T13:57:52.100Z,55.05
2019-01-25T14:00:25.104Z,49.77
2019-01-25T14:02:53.326Z,51.13
2019-01-25T14:05:21.574Z,50.92
2019-01-25T14:07:49.814Z,50.35
2019-01-25T14:10:24.457Z,50.33
2019-01-25T14:12:52.629Z,49.30
2019-01-25T14:15:20.876Z,50.23
2019-01-25T14:17:49.110Z,48.98
2019-01-25T14:20:25.645Z,47.80
2019-01-25T14:22:53.872Z,48.70
2019-01-25T14:25:22.492Z,47.70
2019-01-25T14:27:50.727Z,48.42
2019-01-25T14:30:25.231Z,48.92
2019-01-25T14:32:53.580Z,50.90
2019-01-25T14:35:21.821Z,48.95
2019-01-25T14:37:50.042Z,50.55
2019-01-25T14:40:18.249Z,50.78
2019-01-25T14:42:46.462Z,50.67
2019-01-25T14:45:18.934Z,51.63
2019-01-25T14:47:47.219Z,50.23
2019-01-25T14:50:21.363Z,49.75
2019-01-25T14:52:49.574Z,49.98
2019-01-25T14:55:17.770Z,49.80
2019-01-25T14:57:46.050Z,51.45
2019-01-25T15:00:14.956Z,51.88
2019-01-25T15:02:43.147Z,50.88
2019-01-25T15:05:14.837Z,53.83
2019-01-25T15:07:43.090Z,51.40
2019-01-25T15:10:16.315Z,50.83
2019-01-25T15:12:44.719Z,53.58
2019-01-25T15:15:14.249Z,54.18
2019-01-25T15:17:42.454Z,53.28
2019-01-25T15:20:13.878Z,53.20
2019-01-25T15:22:42.078Z,55.03
2019-01-25T15:25:10.274Z,54.15
2019-01-25T15:27:38.501Z,53.92
2019-01-25T15:30:12.554Z,55.38
2019-01-25T15:32:40.753Z,54.23
2019-01-25T15:35:11.006Z,54.10
2019-01-25T15:37:39.221Z,52.20
2019-01-25T15:40:10.364Z,55.03
2019-01-25T15:42:38.578Z,54.50
2019-01-25T15:45:10.182Z,54.80
2019-01-25T15:47:38.447Z,55.10
2019-01-25T15:50:09.926Z,54.65
2019-01-25T15:52:38.117Z,54.53
2019-01-25T15:55:07.972Z,55.80
2019-01-25T15:57:36.194Z,52.93
2019-01-25T16:00:10.486Z,53.47
2019-01-25T16:02:38.674Z,56.23
2019-01-25T16:05:08.842Z,53.15
2019-01-25T16:07:37.050Z,54.35
2019-01-25T16:10:30.618Z,55.23
2019-01-25T16:12:58.822Z,52.27
2019-01-25T16:15:28.671Z,55.00
2019-01-25T16:17:56.894Z,53.28
2019-01-25T16:20:25.105Z,52.25
2019-01-25T16:22:55.309Z,55.23
2019-01-25T16:25:31.214Z,53.53
2019-01-25T16:27:59.414Z,55.03
2019-01-25T16:30:32.906Z,57.40
2019-01-25T16:33:01.143Z,56.18
2019-01-25T16:35:29.344Z,55.67
2019-01-25T16:37:57.535Z,59.18
2019-01-25T16:40:28.003Z,55.40
2019-01-25T16:42:56.221Z,59.63
2019-01-25T16:45:29.970Z,57.85
2019-01-25T16:47:58.215Z,55.63
2019-01-25T16:50:26.425Z,59.05
2019-01-25T16:52:54.633Z,57.38
2019-01-25T16:55:22.910Z,58.20
2019-01-25T16:57:51.126Z,59.03
2019-01-25T17:00:28.482Z,62.73
2019-01-25T17:02:56.675Z,60.15
2019-01-25T17:05:24.873Z,59.27
2019-01-25T17:07:53.107Z,61.70
2019-01-25T17:10:21.306Z,60.10
2019-01-25T17:12:49.530Z,60.30
2019-01-25T17:15:17.732Z,61.65
2019-01-25T17:17:45.951Z,61.95
2019-01-25T17:20:22.538Z,63.02
2019-01-25T17:22:50.741Z,62.90
2019-01-25T17:25:18.962Z,61.65
2019-01-25T17:27:47.163Z,61.23
2019-01-25T17:30:18.615Z,62.73
2019-01-25T17:32:46.811Z,62.23
2019-01-25T17:35:15.030Z,63.48
2019-01-25T17:37:43.226Z,62.17
2019-01-25T17:40:18.230Z,62.70
2019-01-25T17:42:46.447Z,61.23
2019-01-25T17:45:15.383Z,60.28
2019-01-25T17:47:43.608Z,59.27
2019-01-25T17:50:14.516Z,63.10
2019-01-25T17:52:42.734Z,62.85
2019-01-25T17:55:16.650Z,63.25
2019-01-25T17:57:44.838Z,60.35
2019-01-25T18:00:23.132Z,60.30
2019-01-25T18:02:51.395Z,58.52
2019-01-25T18:05:19.614Z,60.97
2019-01-25T18:07:47.836Z,60.23
2019-01-25T18:10:17.211Z,60.95
2019-01-25T18:12:45.434Z,58.38
2019-01-25T18:15:15.508Z,59.10
2019-01-25T18:17:43.739Z,60.33
2019-01-25T18:20:19.339Z,62.95
2019-01-25T18:22:47.539Z,59.08
2019-01-25T18:25:19.163Z,61.07
2019-01-25T18:27:54.012Z,58.92
2019-01-25T18:30:28.871Z,59.85
2019-01-25T18:32:57.073Z,61.65
2019-01-25T18:35:25.281Z,58.45
2019-01-25T18:37:54.763Z,58.45
2019-01-25T18:40:23.079Z,56.70
2019-01-25T18:42:51.329Z,57.35
2019-01-25T18:45:19.541Z,56.70
2019-01-25T18:47:47.778Z,54.95
2019-01-25T18:50:16.381Z,57.67
2019-01-25T18:52:44.626Z,60.90
2019-01-25T18:55:18.504Z,60.15
2019-01-25T18:57:46.710Z,59.88
2019-01-25T19:00:17.395Z,58.28
2019-01-25T19:02:45.599Z,58.68
2019-01-25T19:05:13.833Z,58.87
2019-01-25T19:07:42.034Z,58.33
2019-01-25T19:10:16.703Z,60.20
2019-01-25T19:12:44.903Z,57.48
2019-01-25T19:15:16.787Z,56.70
2019-01-25T19:17:44.986Z,57.62
2019-01-25T19:20:13.949Z,60.00
2019-01-25T19:22:42.182Z,57.13
2019-01-25T19:25:11.329Z,60.58
2019-01-25T19:27:39.548Z,56.08
2019-01-25T19:30:20.542Z,55.63
2019-01-25T19:32:48.834Z,54.65
2019-01-25T19:35:17.046Z,56.08
2019-01-25T19:37:45.339Z,52.58
2019-01-25T19:40:16.861Z,55.15
2019-01-25T19:42:45.099Z,57.20
2019-01-25T19:45:13.323Z,56.40
2019-01-25T19:47:41.518Z,52.15
2019-01-25T19:50:15.303Z,50.80
2019-01-25T19:52:43.568Z,52.43
2019-01-25T19:55:14.344Z,48.10
2019-01-25T19:57:42.564Z,49.75
2019-01-25T20:00:14.176Z,51.60
2019-01-25T20:02:42.402Z,51.05
2019-01-25T20:05:14.873Z,48.80
2019-01-25T20:07:43.126Z,44.88
2019-01-25T20:10:12.258Z,46.73
2019-01-25T20:12:40.488Z,45.63
2019-01-25T20:15:19.249Z,45.43
2019-01-25T20:17:42.262Z,44.25
2019-01-25T20:20:15.931Z,44.08
2019-01-25T20:22:44.208Z,43.65
2019-01-25T20:25:12.419Z,41.28
2019-01-25T20:27:40.642Z,41.98
2019-01-25T20:30:17.730Z,40.17
2019-01-25T20:32:45.980Z,39.92
2019-01-25T20:35:17.049Z,39.35
2019-01-25T20:37:45.324Z,39.88
2019-01-25T20:40:15.723Z,38.05
2019-01-25T20:42:44.670Z,37.60
2019-01-25T20:45:27.244Z,37.70
2019-01-25T20:47:54.842Z,36.93
2019-01-25T20:50:31.214Z,37.90
2019-01-25T20:52:59.442Z,35.73
2019-01-25T20:55:27.664Z,37.40
2019-01-25T20:57:59.596Z,35.00
2019-01-25T21:00:30.070Z,35.63
2019-01-25T21:02:58.410Z,36.75
2019-01-25T21:05:26.693Z,36.63
2019-01-25T21:07:54.909Z,34.97
2019-01-25T21:10:26.294Z,34.83
2019-01-25T21:12:54.561Z,33.63
2019-01-25T21:15:24.854Z,33.42
2019-01-25T21:17:53.150Z,33.80
2019-01-25T21:20:30.188Z,33.73
2019-01-25T21:22:58.439Z,32.42
2019-01-25T21:25:26.647Z,31.57
2019-01-25T21:27:54.914Z,32.48
2019-01-25T21:30:29.298Z,33.10
2019-01-25T21:32:57.523Z,32.42
2019-01-25T21:35:25.760Z,31.52
2019-01-25T21:37:53.971Z,33.42
2019-01-25T21:40:24.431Z,31.20
2019-01-25T21:42:52.789Z,30.85
2019-01-25T21:45:23.049Z,33.05
2019-01-25T21:47:51.289Z,34.05
2019-01-25T21:50:22.002Z,33.40
2019-01-25T21:52:50.269Z,32.70
2019-01-25T21:55:18.519Z,31.05
2019-01-25T21:57:46.712Z,31.35
2019-01-25T22:00:17.613Z,30.47
2019-01-25T22:02:45.807Z,30.57
2019-01-25T22:05:14.066Z,28.60
2019-01-25T22:07:42.282Z,29.15
2019-01-25T22:10:25.221Z,27.40
2019-01-25T22:12:53.466Z,30.43
2019-01-25T22:15:21.878Z,27.48
2019-01-25T22:17:50.073Z,27.25
2019-01-25T22:20:23.189Z,28.60
2019-01-25T22:22:51.428Z,26.23
2019-01-25T22:25:19.685Z,26.12
2019-01-25T22:27:49.930Z,25.37
2019-01-25T22:30:26.130Z,25.15
2019-01-25T22:32:54.419Z,26.13
2019-01-25T22:35:22.627Z,25.77
2019-01-25T22:37:50.907Z,26.68
2019-01-25T22:40:27.753Z,27.05
2019-01-25T22:42:56.180Z,25.57
2019-01-25T22:45:26.431Z,27.40
2019-01-25T22:47:55.236Z,27.15
2019-01-25T22:50:25.605Z,27.52
2019-01-25T22:52:53.831Z,29.20
2019-01-25T22:55:22.827Z,28.10
2019-01-25T22:57:51.424Z,31.23
2019-01-25T23:00:50.277Z,28.87
2019-01-25T23:03:30.564Z,30.37
2019-01-25T23:06:18.295Z,29.32
2019-01-25T23:08:46.505Z,29.03
2019-01-25T23:11:14.711Z,28.87
2019-01-25T23:13:42.943Z,27.82
2019-01-25T23:16:11.155Z,29.30
2019-01-25T23:18:39.390Z,28.80
2019-01-25T23:21:07.640Z,30.97
2019-01-25T23:23:35.900Z,29.43
2019-01-25T23:26:04.117Z,29.30
2019-01-25T23:28:32.367Z,31.27
2019-01-25T23:31:00.574Z,28.77
2019-01-25T23:33:28.785Z,29.67
2019-01-25T23:35:57.062Z,30.70
2019-01-25T23:38:26.936Z,28.85
2019-01-25T23:40:55.145Z,29.52
2019-01-25T23:43:23.370Z,29.23
2019-01-25T23:45:51.594Z,30.40
2019-01-25T23:48:19.809Z,29.92
2019-01-25T23:50:48.045Z,30.05
2019-01-25T23:53:16.267Z,31.00
2019-01-25T23:55:44.509Z,30.77
2019-01-25T23:58:12.749Z,29.65
